Time;durP1;ratioP1;P1;durP2;ratioP2;P2;SDS_P1;SDS_P2;PMS_P1;PMS_P2;Temp;Humidity;BMP_temperature;BMP_pressure;BME280_temperature;BME280_humidity;BME280_pressure;Samples;Min_cycle;Max_cycle;Signal;HPM_P1;HPM_P2
2022/04/20 00:00:28;;;;;;;;;28.50;24.25;;;;;13.19;54.37;100621.38;5050138;28;45295;-82
2022/04/20 00:02:53;;;;;;;;;25.75;23.75;;;;;13.26;54.22;100626.00;5049374;28;45473;-83
2022/04/20 00:05:19;;;;;;;;;27.50;24.50;;;;;13.06;54.47;100598.25;5049837;28;46027;-82
2022/04/20 00:07:44;;;;;;;;;30.50;27.00;;;;;13.21;54.32;100627.59;5050254;28;45478;-82
2022/04/20 00:10:10;;;;;;;;;34.67;30.67;;;;;13.17;54.58;100621.34;5058900;28;45343;-82
2022/04/20 00:12:35;;;;;;;;;29.00;24.50;;;;;13.32;54.95;100644.59;5068865;28;47964;-83
2022/04/20 00:15:00;;;;;;;;;30.00;26.25;;;;;12.96;54.49;100583.97;5068603;28;45753;-81
2022/04/20 00:17:26;;;;;;;;;27.50;27.50;;;;;13.11;54.69;100615.06;5069857;28;45489;-81
2022/04/20 00:19:51;;;;;;;;;30.75;29.25;;;;;13.16;54.79;100621.34;5070112;28;45481;-82
2022/04/20 00:22:16;;;;;;;;;29.00;26.33;;;;;12.94;54.74;100588.28;5069506;28;45572;-83
2022/04/20 00:24:42;;;;;;;;;29.33;26.00;;;;;12.95;54.74;100597.09;5068427;28;45410;-83
2022/04/20 00:27:07;;;;;;;;;31.25;28.50;;;;;12.68;54.57;100555.19;5051285;28;45483;-83
2022/04/20 00:29:32;;;;;;;;;27.75;26.25;;;;;12.90;54.99;100589.06;5070173;28;45547;-83
2022/04/20 00:31:58;;;;;;;;;30.00;27.25;;;;;12.97;55.38;100617.38;5069146;28;45621;-82
2022/04/20 00:34:23;;;;;;;;;35.67;33.00;;;;;12.97;55.27;100612.13;5068449;28;45434;-82
2022/04/20 00:36:52;;;;;;;;;34.75;31.25;;;;;13.18;55.22;100644.25;5070149;28;45685;-83
2022/04/20 00:39:18;;;;;;;;;37.50;32.00;;;;;13.17;55.42;100646.84;5069022;28;45371;-81
2022/04/20 00:41:44;;;;;;;;;37.00;34.00;;;;;12.75;55.12;100570.25;5069462;28;46792;-82
2022/04/20 00:44:10;;;;;;;;;40.50;36.00;;;;;13.14;55.30;100649.41;5069390;28;45645;-82
2022/04/20 00:46:37;;;;;;;;;33.75;31.75;;;;;12.80;55.59;100593.25;5069796;28;45620;-81
2022/04/20 00:49:04;;;;;;;;;36.00;31.00;;;;;12.98;55.52;100620.91;5060801;28;45774;-81
2022/04/20 00:51:30;;;;;;;;;34.75;33.00;;;;;13.11;55.67;100644.97;5049440;28;45515;-82
2022/04/20 00:54:00;;;;;;;;;44.00;35.50;;;;;13.07;56.00;100639.59;5048427;28;45774;-82
2022/04/20 00:56:26;;;;;;;;;42.50;35.00;;;;;12.76;55.65;100588.78;5049002;28;45497;-83
2022/04/20 00:58:53;;;;;;;;;35.50;31.75;;;;;12.93;55.46;100606.72;5031127;28;45452;-83
2022/04/20 01:01:19;;;;;;;;;32.50;30.75;;;;;12.93;55.61;100615.53;5048467;28;45500;-81
2022/04/20 01:03:44;;;;;;;;;45.25;35.50;;;;;12.81;55.61;100594.16;5031389;28;45475;-82
2022/04/20 01:06:09;;;;;;;;;44.75;35.50;;;;;12.54;55.90;100546.94;5030828;28;45440;-82
2022/04/20 01:08:35;;;;;;;;;36.75;33.50;;;;;12.81;56.02;100594.16;5048956;28;45768;-82
2022/04/20 01:11:01;;;;;;;;;46.75;38.50;;;;;12.70;56.13;100564.88;5065462;28;46427;-83
2022/04/20 01:13:26;;;;;;;;;38.25;34.00;;;;;13.01;55.71;100619.25;5067894;28;45916;-82
2022/04/20 01:15:52;;;;;;;;;41.50;36.00;;;;;12.99;56.09;100613.03;5069154;28;45520;-83
2022/04/20 01:18:17;;;;;;;;;45.75;38.00;;;;;12.80;55.80;100581.81;5069082;28;45480;-82
2022/04/20 01:20:43;;;;;;;;;44.75;37.75;;;;;12.85;55.80;100610.06;5050877;28;48335;-84
2022/04/20 01:23:10;;;;;;;;;47.00;37.25;;;;;12.68;56.04;100576.28;5067068;28;45387;-81
2022/04/20 01:25:36;;;;;;;;;42.50;37.25;;;;;12.61;56.02;100559.38;5051317;28;45613;-82
2022/04/20 01:28:02;;;;;;;;;46.50;38.00;;;;;12.73;56.41;100591.34;5068956;28;45377;-82
2022/04/20 01:30:28;;;;;;;;;48.25;38.25;;;;;12.99;56.59;100630.59;5050955;28;47214;-81
2022/04/20 01:32:57;;;;;;;;;50.00;39.50;;;;;12.81;56.51;100597.69;5068852;28;45578;-82
2022/04/20 01:35:23;;;;;;;;;46.00;38.50;;;;;12.87;56.52;100612.75;5071064;28;45422;-83
2022/04/20 01:37:49;;;;;;;;;44.00;35.50;;;;;12.61;56.52;100572.56;5072861;28;45713;-82
2022/04/20 01:40:15;;;;;;;;;43.50;34.75;;;;;12.57;56.57;100584.81;5071497;28;46534;-82
2022/04/20 01:42:40;;;;;;;;;48.25;40.00;;;;;12.48;56.71;100565.25;5072649;28;45456;-82
2022/04/20 01:45:06;;;;;;;;;50.33;40.00;;;;;12.66;56.77;100599.97;5072954;28;45430;-82
2022/04/20 01:47:32;;;;;;;;;46.25;37.75;;;;;12.61;56.69;100591.03;5072636;28;45532;-83
2022/04/20 01:49:57;;;;;;;;;43.50;37.75;;;;;12.43;57.04;100566.88;5056090;28;45629;-81
2022/04/20 01:52:22;;;;;;;;;45.75;38.25;;;;;12.72;56.96;100626.47;5052369;28;45751;-82
2022/04/20 01:54:48;;;;;;;;;41.75;36.25;;;;;12.72;57.22;100625.59;5051603;28;45608;-82
2022/04/20 01:57:13;;;;;;;;;50.00;40.75;;;;;12.49;57.33;100596.91;5051581;28;45434;-82
2022/04/20 01:59:39;;;;;;;;;50.00;42.00;;;;;12.38;56.97;100580.84;5052143;28;45424;-82
2022/04/20 02:04:48;;;;;;;;;49.25;39.75;;;;;12.30;57.44;100569.22;5052337;28;45800;-82
2022/04/20 02:07:14;;;;;;;;;52.33;43.00;;;;;12.45;57.52;100602.97;5051652;28;45688;-82
2022/04/20 02:09:39;;;;;;;;;54.00;41.00;;;;;12.52;57.29;100609.28;5056692;28;45479;-81
2022/04/20 02:12:05;;;;;;;;;51.00;42.00;;;;;12.16;57.59;100544.25;5071643;28;45673;-81
2022/04/20 02:14:30;;;;;;;;;53.25;44.00;;;;;12.33;57.57;100569.28;5072228;28;45514;-82
2022/04/20 02:16:56;;;;;;;;;53.00;42.25;;;;;12.44;57.78;100588.00;5071467;28;45780;-81
2022/04/20 02:19:21;;;;;;;;;48.25;39.00;;;;;12.15;57.17;100539.84;5053059;28;48007;-82
2022/04/20 02:21:46;;;;;;;;;54.00;45.00;;;;;12.19;57.90;100546.97;5071913;28;45624;-82
2022/04/20 02:24:13;;;;;;;;;53.25;42.75;;;;;12.47;57.74;100593.38;5052946;28;46378;-82
2022/04/20 02:26:39;;;;;;;;;53.75;44.00;;;;;12.36;57.72;100579.94;5070669;28;45647;-83
2022/04/20 02:29:04;;;;;;;;;50.50;41.25;;;;;12.28;57.61;100559.50;5071749;28;46261;-82
2022/04/20 02:31:29;;;;;;;;;52.00;44.00;;;;;12.47;57.94;100601.28;5053451;28;45465;-83
2022/04/20 02:33:55;;;;;;;;;55.25;43.75;;;;;12.28;58.12;100563.03;5071662;28;45764;-82
2022/04/20 02:36:21;;;;;;;;;53.25;43.75;;;;;12.12;58.05;100537.16;5071474;28;45662;-82
2022/04/20 02:38:47;;;;;;;;;52.25;44.25;;;;;12.14;58.25;100538.06;5052686;28;46972;-82
2022/04/20 02:41:12;;;;;;;;;54.00;43.75;;;;;12.24;58.19;100558.53;5071319;28;45577;-82
2022/04/20 02:43:38;;;;;;;;;54.25;42.75;;;;;12.06;58.52;100531.72;5071847;28;45399;-83
2022/04/20 02:46:03;;;;;;;;;54.25;44.25;;;;;12.05;58.47;100532.56;5070062;28;45720;-83
2022/04/20 02:48:29;;;;;;;;;53.50;44.25;;;;;12.20;58.15;100550.50;5052985;28;48032;-82
2022/04/20 02:50:54;;;;;;;;;55.25;46.50;;;;;11.97;58.51;100508.69;5071370;28;45708;-82
2022/04/20 02:53:19;;;;;;;;;60.33;46.00;;;;;12.19;58.70;100543.47;5070639;28;45343;-83
2022/04/20 02:55:45;;;;;;;;;56.33;44.67;;;;;12.09;58.81;100521.25;5071420;28;45733;-82
2022/04/20 02:58:10;;;;;;;;;53.50;43.50;;;;;12.30;58.62;100552.50;5070844;28;45528;-82
2022/04/20 03:00:36;;;;;;;;;52.50;42.50;;;;;12.06;58.79;100508.00;5071440;28;45420;-81
2022/04/20 03:03:02;;;;;;;;;48.50;40.75;;;;;12.39;58.73;100566.81;5071277;28;45455;-81
2022/04/20 03:05:27;;;;;;;;;58.25;46.00;;;;;12.12;58.60;100516.09;5071867;28;45789;-83
2022/04/20 03:07:53;;;;;;;;;61.75;46.75;;;;;12.09;58.81;100521.25;5070629;28;46706;-82
2022/04/20 03:10:18;;;;;;;;;57.75;46.75;;;;;12.14;58.74;100525.78;5071040;28;45457;-82
2022/04/20 03:12:44;;;;;;;;;57.50;45.25;;;;;12.12;58.70;100522.25;5071543;28;45378;-83
2022/04/20 03:15:09;;;;;;;;;55.25;43.00;;;;;12.36;59.01;100568.47;5070889;28;45605;-82
2022/04/20 03:17:34;;;;;;;;;59.25;47.00;;;;;11.87;58.96;100478.59;5071124;28;45700;-81
2022/04/20 03:20:00;;;;;;;;;59.33;47.33;;;;;11.98;58.58;100501.69;5070865;28;45422;-83
2022/04/20 03:22:25;;;;;;;;;52.50;44.50;;;;;12.33;58.74;100563.13;5070878;28;45600;-83
2022/04/20 03:24:50;;;;;;;;;59.00;47.25;;;;;12.05;58.86;100529.94;5071042;28;45622;-82
2022/04/20 03:27:16;;;;;;;;;62.00;48.67;;;;;12.04;58.93;100528.16;5070745;28;45448;-82
2022/04/20 03:29:41;;;;;;;;;58.25;46.25;;;;;12.31;59.49;100593.81;5068955;28;45437;-81
2022/04/20 03:32:15;;;;;;;;;59.75;48.50;;;;;12.13;58.89;100560.91;5070519;28;45465;-83
2022/04/20 03:34:41;;;;;;;;;57.25;46.50;;;;;12.30;59.09;100592.03;5071041;28;45452;-81
2022/04/20 03:37:08;;;;;;;;;57.00;47.00;;;;;12.01;59.51;100542.13;5069882;28;45490;-82
2022/04/20 03:39:34;;;;;;;;;60.75;47.00;;;;;12.12;59.45;100560.88;5070422;28;45921;-83
2022/04/20 03:42:00;;;;;;;;;60.75;49.50;;;;;12.28;59.73;100592.00;5070621;28;45702;-82
2022/04/20 03:44:26;;;;;;;;;60.50;48.75;;;;;12.16;59.29;100575.88;5070775;28;45317;-82
2022/04/20 03:46:52;;;;;;;;;57.75;48.00;;;;;12.09;59.49;100559.03;5070451;28;45607;-83
2022/04/20 03:49:18;;;;;;;;;62.25;48.75;;;;;11.92;59.01;100531.38;5059778;28;45766;-83
2022/04/20 03:51:45;;;;;;;;;63.25;50.25;;;;;12.13;59.48;100573.19;5050416;28;45474;-83
2022/04/20 03:54:10;;;;;;;;;60.00;49.25;;;;;11.95;59.34;100535.81;5031719;28;45466;-83
2022/04/20 03:59:19;;;;;;;;;62.75;49.75;;;;;11.99;59.44;100545.59;5049824;28;45345;-81
2022/04/20 04:01:45;;;;;;;;;61.67;49.00;;;;;11.97;59.44;100539.38;5050860;28;45683;-82
2022/04/20 04:04:10;;;;;;;;;61.33;50.00;;;;;12.00;59.27;100542.09;5050230;28;45506;-83
2022/04/20 04:06:35;;;;;;;;;61.00;48.00;;;;;12.11;59.30;100561.69;5031878;28;48361;-82
2022/04/20 04:09:01;;;;;;;;;60.75;50.50;;;;;11.88;59.45;100513.72;5031258;28;45584;-82
2022/04/20 04:11:26;;;;;;;;;63.00;49.33;;;;;12.09;59.61;100553.75;5070474;28;45447;-82
2022/04/20 04:13:51;;;;;;;;;61.67;49.67;;;;;12.11;59.67;100556.44;5070002;28;45823;-83
2022/04/20 04:16:17;;;;;;;;;58.00;48.00;;;;;12.26;59.67;100598.06;5069820;28;45429;-84
2022/04/20 04:18:42;;;;;;;;;58.33;47.33;;;;;12.20;59.71;100579.47;5070827;28;45732;-83
2022/04/20 04:21:07;;;;;;;;;60.67;47.00;;;;;12.11;59.78;100562.59;5069853;28;45350;-83
2022/04/20 04:23:33;;;;;;;;;62.33;48.00;;;;;12.20;59.71;100582.13;5070215;28;45624;-82
2022/04/20 04:25:58;;;;;;;;;59.33;47.33;;;;;11.84;59.43;100514.50;5069769;28;46451;-82
2022/04/20 04:28:23;;;;;;;;;67.00;50.67;;;;;12.27;59.72;100592.88;5068351;28;45597;-83
2022/04/20 04:30:49;;;;;;;;;59.75;48.75;;;;;11.97;59.58;100536.75;5070174;28;45675;-83
2022/04/20 04:33:14;;;;;;;;;59.00;49.00;;;;;12.13;59.95;100576.69;5070036;28;45490;-82
2022/04/20 04:35:40;;;;;;;;;61.25;50.00;;;;;11.99;59.55;100549.13;5069954;28;45595;-81
2022/04/20 04:38:05;;;;;;;;;62.75;49.00;;;;;11.94;59.72;100537.56;5069532;28;45477;-82
2022/04/20 04:40:31;;;;;;;;;58.50;46.50;;;;;12.05;59.90;100557.16;5070128;28;45321;-83
2022/04/20 04:42:56;;;;;;;;;65.00;50.75;;;;;12.22;59.50;100591.88;5069807;28;45320;-82
2022/04/20 04:50:50;;;;;;;;;60.50;49.50;;;;;12.03;59.85;100577.31;5069689;28;45504;-81
2022/04/20 04:53:15;;;;;;;;;65.67;52.00;;;;;12.09;59.90;100593.28;5067757;28;45880;-83
2022/04/20 04:55:40;;;;;;;;;67.00;50.00;;;;;12.08;59.81;100599.41;5069921;28;46451;-82
2022/04/20 04:58:06;;;;;;;;;60.75;50.00;;;;;11.68;59.62;100523.72;5069320;28;45371;-84
2022/04/20 05:00:32;;;;;;;;;64.75;51.00;;;;;11.86;60.00;100571.59;5051707;28;45596;-82
2022/04/20 05:02:57;;;;;;;;;60.00;48.75;;;;;11.75;59.73;100546.69;5069642;28;45498;-83
2022/04/20 05:05:23;;;;;;;;;68.25;51.75;;;;;11.81;59.68;100562.66;5069450;28;46787;-82
2022/04/20 05:07:54;;;;;;;;;65.75;50.25;;;;;11.55;60.26;100516.31;5069222;28;45708;-83
2022/04/20 05:10:22;;;;;;;;;66.50;49.75;;;;;11.70;60.36;100547.44;5070783;28;45741;-82
2022/04/20 05:12:47;;;;;;;;;64.00;51.00;;;;;11.62;60.21;100532.34;5071639;28;45440;-82
2022/04/20 05:15:13;;;;;;;;;65.00;50.75;;;;;11.80;60.44;100571.41;5072834;28;45593;-82
2022/04/20 05:17:38;;;;;;;;;66.25;52.00;;;;;11.96;60.36;100595.53;5073304;28;45288;-83
2022/04/20 05:20:05;;;;;;;;;65.25;51.50;;;;;11.61;60.32;100535.78;5072481;28;45342;-81
2022/04/20 05:22:30;;;;;;;;;66.00;52.25;;;;;11.88;60.48;100583.09;5073329;28;45625;-83
2022/04/20 05:24:55;;;;;;;;;64.00;50.50;;;;;11.59;60.42;100526.09;5054159;28;48146;-83
2022/04/20 05:27:21;;;;;;;;;60.00;49.25;;;;;11.95;60.04;100591.13;5072562;28;45732;-84
2022/04/20 05:29:46;;;;;;;;;68.00;52.33;;;;;11.97;60.06;100589.41;5073148;28;45612;-82
2022/04/20 05:32:12;;;;;;;;;64.75;51.25;;;;;11.82;60.44;100548.69;5054334;28;45509;-83
2022/04/20 05:34:38;;;;;;;;;65.50;51.25;;;;;12.04;60.01;100584.38;5073307;28;45564;-83
2022/04/20 05:42:31;;;;;;;;;66.00;53.00;;;;;11.99;59.79;100543.84;5072826;28;45573;-83
2022/04/20 05:44:56;;;;;;;;;67.67;51.67;;;;;12.16;59.65;100567.09;5072894;28;45495;-82
2022/04/20 05:47:21;;;;;;;;;64.67;51.00;;;;;11.97;59.48;100523.56;5072804;28;45542;-82
2022/04/20 05:49:47;;;;;;;;;65.50;51.00;;;;;12.33;59.66;100584.22;5072856;28;45577;-83
2022/04/20 05:52:13;;;;;;;;;62.75;50.00;;;;;12.32;59.16;100593.00;5073039;28;45790;-84
2022/04/20 05:54:38;;;;;;;;;63.75;51.25;;;;;12.13;59.60;100542.47;5072750;28;45549;-81
2022/04/20 05:57:04;;;;;;;;;61.00;50.33;;;;;12.24;59.37;100553.25;5072068;28;45390;-82
2022/04/20 05:59:29;;;;;;;;;62.75;50.50;;;;;12.12;59.51;100529.25;5073009;28;45663;-83
2022/04/20 06:01:55;;;;;;;;;68.25;55.00;;;;;12.45;59.16;100578.34;5072237;28;45548;-82
2022/04/20 06:04:20;;;;;;;;;65.50;50.25;;;;;12.28;59.22;100555.13;5053761;28;47043;-82
2022/04/20 06:06:45;;;;;;;;;66.50;53.00;;;;;12.59;59.26;100604.19;5072433;28;45634;-82
2022/04/20 06:09:11;;;;;;;;;63.50;51.50;;;;;12.56;59.37;100592.66;5071790;28;45633;-83
2022/04/20 06:11:36;;;;;;;;;67.25;52.50;;;;;12.69;59.21;100601.78;5071341;28;45614;-82
2022/04/20 06:14:02;;;;;;;;;63.50;51.25;;;;;12.27;58.79;100516.44;5071597;28;45538;-82
2022/04/20 06:16:28;;;;;;;;;62.75;50.00;;;;;12.65;58.71;100577.06;5072479;28;45744;-82
2022/04/20 06:18:56;;;;;;;;;64.00;49.75;;;;;12.75;58.90;100599.28;5072829;28;45723;-83
2022/04/20 06:21:21;;;;;;;;;68.00;52.00;;;;;12.61;58.56;100584.03;5070808;28;45768;-83
2022/04/20 06:23:47;;;;;;;;;62.25;50.50;;;;;12.50;58.77;100571.44;5072373;28;46676;-83
2022/04/20 06:26:12;;;;;;;;;64.33;52.33;;;;;12.44;58.71;100550.22;5070913;28;45707;-83
2022/04/20 06:28:38;;;;;;;;;65.00;51.00;;;;;12.46;58.62;100552.00;5072558;28;45719;-82
2022/04/20 06:31:04;;;;;;;;;67.00;53.25;;;;;12.49;58.95;100567.91;5072266;28;45814;-83
2022/04/20 06:33:30;;;;;;;;;67.50;52.50;;;;;12.68;58.91;100597.38;5072532;28;45541;-83
2022/04/20 06:35:56;;;;;;;;;66.00;53.00;;;;;12.45;59.00;100552.00;5071577;28;45451;-84
2022/04/20 06:38:22;;;;;;;;;68.67;54.33;;;;;12.45;59.14;100546.72;5053201;28;45300;-84
2022/04/20 06:40:47;;;;;;;;;63.75;51.25;;;;;12.48;59.01;100552.06;5072024;28;45437;-82
2022/04/20 06:43:12;;;;;;;;;62.50;50.25;;;;;12.61;58.77;100576.13;5071236;28;45966;-81
2022/04/20 06:45:38;;;;;;;;;66.33;52.00;;;;;12.57;58.84;100569.00;5071948;28;45498;-82
2022/04/20 06:48:04;;;;;;;;;68.33;54.33;;;;;12.50;58.89;100561.78;5052828;28;45438;-82
2022/04/20 06:50:29;;;;;;;;;69.50;53.50;;;;;12.46;59.12;100551.13;5033229;28;45400;-83
2022/04/20 06:58:41;;;;;;;;;66.75;53.75;;;;;12.55;59.01;100532.91;5051174;28;45729;-82
2022/04/20 07:01:07;;;;;;;;;69.50;54.75;;;;;12.99;59.04;100604.22;5051220;28;45447;-84
2022/04/20 07:03:34;;;;;;;;;68.75;53.50;;;;;13.03;58.83;100608.72;5051429;28;45461;-84
2022/04/20 07:06:00;;;;;;;;;67.00;53.75;;;;;12.80;58.66;100561.59;5051170;28;45841;-84
2022/04/20 07:08:26;;;;;;;;;65.75;52.75;;;;;13.12;58.50;100608.94;5051259;28;45483;-85
2022/04/20 07:10:53;;;;;;;;;65.25;53.00;;;;;12.91;58.31;100575.06;5066921;28;46115;-85
2022/04/20 07:13:19;;;;;;;;;65.50;52.00;;;;;13.14;58.60;100599.28;5071080;28;45631;-83
2022/04/20 07:15:45;;;;;;;;;69.75;55.00;;;;;13.23;58.35;100603.91;5071668;28;45839;-82
2022/04/20 07:18:10;;;;;;;;;65.50;50.75;;;;;13.28;57.82;100603.16;5071383;28;45431;-84
2022/04/20 07:20:35;;;;;;;;;63.00;52.00;;;;;13.09;57.98;100564.00;5071586;28;45433;-82
2022/04/20 07:23:01;;;;;;;;;64.33;51.00;;;;;13.21;57.97;100574.81;5070663;28;45440;-83
2022/04/20 07:25:26;;;;;;;;;65.00;51.75;;;;;13.03;57.52;100542.75;5052855;28;45893;-83
2022/04/20 07:27:52;;;;;;;;;66.25;52.50;;;;;13.31;57.42;100583.84;5070866;28;45406;-83
2022/04/20 07:30:18;;;;;;;;;66.50;51.00;;;;;13.15;57.46;100549.19;5071000;28;45338;-84
2022/04/20 07:32:44;;;;;;;;;63.00;49.50;;;;;13.49;56.99;100601.81;5070834;28;46908;-82
2022/04/20 07:35:09;;;;;;;;;61.50;50.00;;;;;13.28;57.10;100555.63;5070369;28;45443;-82
2022/04/20 07:37:35;;;;;;;;;57.50;47.25;;;;;13.55;57.18;100596.69;5070830;28;45658;-83
2022/04/20 07:40:00;;;;;;;;;60.75;48.75;;;;;13.56;56.34;100585.25;5070586;28;45447;-83
2022/04/20 07:42:26;;;;;;;;;61.25;48.25;;;;;13.53;56.35;100554.38;5070557;28;46665;-83
2022/04/20 07:44:56;;;;;;;;;59.50;49.50;;;;;13.66;56.68;100563.44;5071084;28;45515;-83
2022/04/20 07:47:24;;;;;;;;;61.50;49.50;;;;;13.70;56.24;100554.72;5070830;28;45517;-84
2022/04/20 07:52:45;;;;;;;;;59.50;48.25;;;;;14.15;55.44;100603.97;5070950;28;45549;-84
2022/04/20 07:55:16;;;;;;;;;60.50;50.25;;;;;14.06;55.34;100578.25;5070589;28;45770;-84
2022/04/20 07:57:45;;;;;;;;;60.00;47.00;;;;;14.05;55.21;100559.75;5069572;28;45613;-83
2022/04/20 08:00:13;;;;;;;;;46.50;40.00;;;;;14.11;55.04;100555.44;5070550;28;45433;-82
2022/04/20 08:02:39;;;;;;;;;48.25;39.75;;;;;14.11;53.41;100541.34;5052895;28;48319;-83
2022/04/20 08:05:05;;;;;;;;;48.25;40.50;;;;;14.08;53.48;100534.25;5070486;28;45575;-81
2022/04/20 08:07:32;;;;;;;;;49.50;40.25;;;;;14.26;53.08;100557.47;5070931;28;45514;-81
2022/04/20 08:09:57;;;;;;;;;44.00;35.50;;;;;14.33;52.66;100559.31;5070655;28;45412;-83
2022/04/20 08:12:24;;;;;;;;;41.75;35.75;;;;;14.55;52.08;100581.75;5069947;28;45587;-84
2022/04/20 08:14:51;;;;;;;;;40.25;35.75;;;;;14.44;52.21;100549.81;5070661;28;45515;-84
2022/04/20 08:17:16;;;;;;;;;44.00;35.25;;;;;14.58;52.00;100559.75;5068639;28;45485;-83
2022/04/20 08:19:42;;;;;;;;;38.50;34.00;;;;;14.60;51.90;100552.75;5070476;28;45697;-82
2022/04/20 08:22:07;;;;;;;;;41.00;34.25;;;;;14.87;51.98;100574.28;5070128;28;45615;-82
2022/04/20 08:24:33;;;;;;;;;36.00;33.50;;;;;15.15;51.41;100598.50;5070518;28;45562;-83
2022/04/20 08:26:58;;;;;;;;;35.75;33.25;;;;;15.12;51.20;100566.69;5068578;28;45552;-84
2022/04/20 08:29:24;;;;;;;;;43.00;37.25;;;;;15.30;51.31;100581.94;5052354;28;45608;-82
2022/04/20 08:31:49;;;;;;;;;42.33;37.00;;;;;15.26;51.14;100561.59;5070281;28;46174;-83
2022/04/20 08:34:14;;;;;;;;;41.75;35.25;;;;;15.41;50.97;100573.25;5069524;28;45507;-81
2022/04/20 08:36:40;;;;;;;;;47.75;37.50;;;;;15.74;50.40;100609.00;5070535;28;45590;-83
2022/04/20 08:39:05;;;;;;;;;44.00;37.50;;;;;15.64;50.25;100585.91;5068806;28;46203;-82
2022/04/20 08:41:31;;;;;;;;;36.00;33.33;;;;;15.59;50.69;100561.09;5051591;28;48014;-82
2022/04/20 08:43:57;;;;;;;;;45.75;38.00;;;;;15.58;50.20;100546.09;5070031;28;45722;-83
2022/04/20 08:46:24;;;;;;;;;41.25;36.00;;;;;15.85;49.97;100579.97;5073394;28;45445;-83
2022/04/20 08:48:50;;;;;;;;;38.75;33.50;;;;;15.63;49.49;100541.72;5066656;28;45887;-83
2022/04/20 08:51:18;;;;;;;;;43.50;35.25;;;;;15.77;49.30;100561.34;5034872;28;47284;-84
2022/04/20 08:53:44;;;;;;;;;38.75;33.25;;;;;16.09;49.31;100611.13;5053554;28;46028;-82
2022/04/20 08:58:53;;;;;;;;;39.75;34.25;;;;;15.90;49.04;100588.84;5053405;28;45759;-83
2022/04/20 09:01:19;;;;;;;;;39.25;34.00;;;;;15.83;49.21;100581.72;5052984;28;46194;-83
2022/04/20 09:03:46;;;;;;;;;42.00;36.00;;;;;15.79;48.70;100577.25;5053043;28;45792;-82
2022/04/20 09:06:12;;;;;;;;;40.00;34.00;;;;;15.90;49.58;100594.16;5052998;28;45454;-82
2022/04/20 09:08:38;;;;;;;;;34.50;30.75;;;;;15.69;49.63;100555.06;5053210;28;45405;-84
2022/04/20 09:11:04;;;;;;;;;38.25;34.50;;;;;16.07;49.13;100610.25;5069680;28;46171;-83
2022/04/20 09:13:45;;;;;;;;;37.75;33.25;;;;;16.12;49.16;100609.41;5072267;28;45398;-85
2022/04/20 09:16:12;;;;;;;;;38.00;32.75;;;;;15.85;49.21;100549.03;5072078;28;45439;-83
2022/04/20 09:18:41;;;;;;;;;41.50;34.50;;;;;15.89;48.28;100544.66;5072009;28;45769;-83
2022/04/20 09:21:09;;;;;;;;;36.50;32.25;;;;;16.24;47.89;100600.66;5072738;28;46088;-83
2022/04/20 09:23:35;;;;;;;;;34.00;30.75;;;;;16.16;48.05;100582.06;5055266;28;45800;-83
2022/04/20 09:26:10;;;;;;;;;36.25;31.75;;;;;16.15;47.50;100572.28;5072775;28;45431;-82
2022/04/20 09:28:42;;;;;;;;;30.50;28.50;;;;;16.37;47.71;100577.81;5073728;28;45547;-82
2022/04/20 09:31:09;;;;;;;;;36.50;31.25;;;;;16.09;47.48;100524.53;5054617;28;47326;-83
2022/04/20 09:33:45;;;;;;;;;33.50;31.00;;;;;16.13;47.17;100525.44;5073097;28;45742;-84
2022/04/20 09:36:12;;;;;;;;;24.50;23.25;;;;;16.20;46.77;100535.22;5072909;28;45470;-82
2022/04/20 09:38:41;;;;;;;;;30.50;29.25;;;;;16.09;47.04;100497.13;5073092;28;45486;-83
2022/04/20 09:41:08;;;;;;;;;30.75;25.25;;;;;16.54;46.99;100562.00;5072305;28;46533;-84
2022/04/20 09:43:34;;;;;;;;;29.00;28.75;;;;;16.44;46.12;100546.00;5055211;28;45889;-82
2022/04/20 09:49:08;;;;;;;;;29.00;27.25;;;;;16.54;46.69;100535.47;5065421;28;45447;-82
2022/04/20 09:51:39;;;;;;;;;28.00;26.00;;;;;16.62;47.00;100533.78;5052618;28;45422;-83
2022/04/20 09:54:23;;;;;;;;;32.50;29.50;;;;;16.82;46.56;100553.41;5033408;28;46281;-85
2022/04/20 09:57:07;;;;;;;;;28.50;27.25;;;;;17.01;46.78;100565.91;5052693;28;45420;-83
2022/04/20 09:59:33;;;;;;;;;29.50;29.50;;;;;16.79;46.79;100525.94;5052909;28;45490;-82
2022/04/20 10:01:58;;;;;;;;;25.75;24.50;;;;;17.06;46.34;100562.38;5051987;28;46295;-83
2022/04/20 10:04:24;;;;;;;;;30.00;29.00;;;;;16.73;46.24;100508.22;5052408;28;45613;-83
2022/04/20 10:06:49;;;;;;;;;27.50;26.00;;;;;16.66;46.26;100496.66;5052684;28;45570;-83
2022/04/20 10:09:15;;;;;;;;;27.50;25.25;;;;;16.87;46.21;100514.50;5035426;28;45591;-83
2022/04/20 10:11:41;;;;;;;;;27.75;26.00;;;;;16.88;45.60;100521.56;5054526;28;47101;-83
2022/04/20 10:16:57;;;;;;;;;30.00;28.25;;;;;17.03;46.01;100526.94;5072372;28;45598;-82
2022/04/20 10:19:28;;;;;;;;;30.00;29.50;;;;;17.16;45.34;100535.88;5072749;28;45456;-82
2022/04/20 10:21:55;;;;;;;;;22.25;21.00;;;;;17.15;46.37;100533.22;5072134;28;45728;-82
2022/04/20 10:24:30;;;;;;;;;28.50;24.50;;;;;17.27;46.45;100530.59;5071607;28;45514;-84
2022/04/20 10:27:02;;;;;;;;;25.25;24.00;;;;;17.50;46.03;100555.50;5072476;28;45542;-85
2022/04/20 10:29:41;;;;;;;;;26.75;25.50;;;;;17.24;45.76;100510.25;5073047;28;45683;-84
2022/04/20 10:32:22;;;;;;;;;23.75;23.25;;;;;17.25;45.81;100492.53;5072150;28;46252;-85
2022/04/20 10:34:50;;;;;;;;;23.00;22.50;;;;;17.41;46.11;100501.44;5054281;28;45789;-83
2022/04/20 10:37:25;;;;;;;;;23.50;22.50;;;;;17.49;45.57;100507.66;5072145;28;45466;-83
2022/04/20 10:39:53;;;;;;;;;21.75;21.25;;;;;17.80;45.57;100543.19;5072215;28;45546;-83
2022/04/20 10:42:20;;;;;;;;;24.75;23.00;;;;;17.68;45.29;100517.41;5053772;28;48090;-84
2022/04/20 10:44:51;;;;;;;;;26.00;26.00;;;;;17.93;45.22;100537.03;5054143;28;45902;-83
2022/04/20 10:47:36;;;;;;;;;18.75;18.00;;;;;18.01;44.95;100540.56;5053174;28;45684;-83
2022/04/20 10:50:29;;;;;;;;;20.75;18.50;;;;;18.06;44.44;100519.28;5054760;28;45589;-83
2022/04/20 10:53:03;;;;;;;;;20.50;20.00;;;;;18.07;44.49;100499.78;5050980;28;45708;-83
2022/04/20 10:55:31;;;;;;;;;20.75;19.75;;;;;18.37;44.62;100529.91;5051614;28;46157;-85
2022/04/20 10:58:01;;;;;;;;;19.75;19.75;;;;;18.11;44.09;100471.41;5051425;28;45543;-83
2022/04/20 11:00:33;;;;;;;;;17.75;16.25;;;;;18.17;43.89;100468.75;5051323;28;45509;-83
2022/04/20 11:03:06;;;;;;;;;19.50;18.50;;;;;18.26;44.06;100479.38;5050911;28;45534;-84
2022/04/20 11:05:33;;;;;;;;;19.50;17.75;;;;;18.44;44.03;100482.03;5032948;28;45875;-82
2022/04/20 11:08:14;;;;;;;;;19.00;18.00;;;;;18.76;44.22;100524.56;5031589;28;45623;-83
2022/04/20 11:18:38;;;;;;;;;15.25;14.50;;;;;18.58;43.60;100471.34;5065841;28;45467;-82
2022/04/20 11:19:11;;;;;;;;;18.75;16.25;;;;;18.77;41.91;100478.44;5071416;28;45537;-85
2022/04/20 11:21:50;;;;;;;;;15.50;15.00;;;;;18.89;42.05;100493.47;5071537;28;45565;-84
2022/04/20 11:24:25;;;;;;;;;14.25;14.00;;;;;18.88;41.73;100485.50;5070500;28;46806;-84
2022/04/20 11:26:54;;;;;;;;;13.00;13.00;;;;;19.13;41.49;100507.59;5071376;28;45928;-83
2022/04/20 11:29:22;;;;;;;;;13.75;11.75;;;;;19.16;41.27;100505.81;5070200;28;45506;-83
2022/04/20 11:32:00;;;;;;;;;14.75;14.00;;;;;19.20;40.91;100504.00;5071168;28;45484;-84
2022/04/20 11:34:28;;;;;;;;;16.50;15.50;;;;;18.96;40.89;100449.94;5069995;28;48156;-84
2022/04/20 11:37:00;;;;;;;;;13.25;13.00;;;;;19.26;40.91;100493.31;5069494;28;45996;-84
2022/04/20 11:39:28;;;;;;;;;13.25;12.00;;;;;19.38;41.32;100509.25;5069255;28;45454;-82
2022/04/20 11:42:05;;;;;;;;;10.00;9.75;;;;;19.18;40.40;100448.06;5069512;28;45348;-82
2022/04/20 11:44:32;;;;;;;;;11.00;10.50;;;;;19.39;40.48;100478.16;5071302;28;46546;-83
2022/04/20 11:47:03;;;;;;;;;11.00;11.00;;;;;19.41;40.26;100469.25;5070718;28;45937;-82